ENOL

Ørland Airport

Ørland, Norway
METAR ENOL 222150Z 12009KT CAVOK 10/01 Q1003
Observed Flight Rules
Apr-22 @ 21:50 UTC (11 minutes ago) Visual Flight Rules
Wind Visibility Clouds
120° at 9 knots 10,000+ meters
  • Clear skies
Temperatures Readings
Current 10°C / 50°F
Dewpoint 1°C / 34°F
Humidity 54%
Altimeter 29.62" Hg
Pressure 1003 hPa
Elevation 7
METAR ENOL 222150Z 12009KT CAVOK 10/01 Q1003
Observed Flight Rules
Apr-22 @ 21:50 UTC
(11 minutes ago)
VFR
Wind Visibility
120° at 9 knots 10,000+ meters
Clouds
  • Clear skies
Temperature Dewpoint
10°C / 50°F 1°C / 34°F
Humidity Altimeter Pressure
54% 29.62" Hg 1003 hPa